sensor_id;sensor_type;location;lat;lon;timestamp;pressure;altitude;pressure_sealevel;temperature;humidity
33075;BME280;19433;51.292;6.868;2023-09-08T00:00:43;100581.13;;;18.40;88.01
33075;BME280;19433;51.292;6.868;2023-09-08T00:03:09;100581.03;;;18.35;88.04
33075;BME280;19433;51.292;6.868;2023-09-08T00:05:34;100587.03;;;18.27;88.38
33075;BME280;19433;51.292;6.868;2023-09-08T00:07:59;100583.16;;;18.28;88.79
33075;BME280;19433;51.292;6.868;2023-09-08T00:10:24;100576.34;;;18.24;88.74
33075;BME280;19433;51.292;6.868;2023-09-08T00:12:50;100575.09;;;18.32;88.44
33075;BME280;19433;51.292;6.868;2023-09-08T00:15:15;100569.75;;;18.13;88.70
33075;BME280;19433;51.292;6.868;2023-09-08T00:17:40;100568.91;;;18.13;89.09
33075;BME280;19433;51.292;6.868;2023-09-08T00:20:06;100571.78;;;18.18;89.24
33075;BME280;19433;51.292;6.868;2023-09-08T00:22:35;100569.63;;;18.08;89.85
33075;BME280;19433;51.292;6.868;2023-09-08T00:25:01;100573.09;;;17.99;90.31
33075;BME280;19433;51.292;6.868;2023-09-08T00:27:26;100582.66;;;18.03;91.22
33075;BME280;19433;51.292;6.868;2023-09-08T00:29:52;100570.56;;;17.97;91.48
33075;BME280;19433;51.292;6.868;2023-09-08T00:32:17;100571.16;;;17.99;91.47
33075;BME280;19433;51.292;6.868;2023-09-08T00:34:42;100560.28;;;17.86;92.37
33075;BME280;19433;51.292;6.868;2023-09-08T00:37:07;100553.25;;;17.83;92.12
33075;BME280;19433;51.292;6.868;2023-09-08T00:39:35;100567.81;;;17.85;92.22
33075;BME280;19433;51.292;6.868;2023-09-08T00:42:01;100570.88;;;17.72;92.15
33075;BME280;19433;51.292;6.868;2023-09-08T00:44:26;100568.09;;;17.72;92.63
33075;BME280;19433;51.292;6.868;2023-09-08T00:46:51;100567.13;;;17.78;92.15
33075;BME280;19433;51.292;6.868;2023-09-08T00:49:17;100554.78;;;17.91;90.82
33075;BME280;19433;51.292;6.868;2023-09-08T00:51:42;100561.31;;;17.97;91.38
33075;BME280;19433;51.292;6.868;2023-09-08T00:54:08;100563.16;;;17.91;90.32
33075;BME280;19433;51.292;6.868;2023-09-08T00:56:34;100562.78;;;17.99;90.89
33075;BME280;19433;51.292;6.868;2023-09-08T00:59:02;100556.47;;;17.92;91.52
33075;BME280;19433;51.292;6.868;2023-09-08T01:01:28;100562.66;;;17.94;91.91
33075;BME280;19433;51.292;6.868;2023-09-08T01:03:54;100562.88;;;17.76;92.52
33075;BME280;19433;51.292;6.868;2023-09-08T01:06:19;100570.94;;;17.89;91.71
33075;BME280;19433;51.292;6.868;2023-09-08T01:08:46;100568.31;;;17.82;92.69
33075;BME280;19433;51.292;6.868;2023-09-08T01:11:12;100573.75;;;17.89;91.47
33075;BME280;19433;51.292;6.868;2023-09-08T01:13:37;100563.56;;;18.11;89.79
33075;BME280;19433;51.292;6.868;2023-09-08T01:16:02;100569.44;;;18.43;87.90
33075;BME280;19433;51.292;6.868;2023-09-08T01:18:28;100565.72;;;18.71;83.99
33075;BME280;19433;51.292;6.868;2023-09-08T01:21:25;100567.31;;;18.84;84.90
33075;BME280;19433;51.292;6.868;2023-09-08T01:26:37;100567.31;;;18.84;84.07
33075;BME280;19433;51.292;6.868;2023-09-08T01:29:05;100562.06;;;18.71;86.34
33075;BME280;19433;51.292;6.868;2023-09-08T01:31:31;100562.47;;;18.79;83.83
33075;BME280;19433;51.292;6.868;2023-09-08T01:33:56;100565.50;;;18.94;83.07
33075;BME280;19433;51.292;6.868;2023-09-08T01:36:22;100566.81;;;18.87;84.93
33075;BME280;19433;51.292;6.868;2023-09-08T01:38:47;100565.63;;;18.83;85.56
33075;BME280;19433;51.292;6.868;2023-09-08T01:41:12;100560.81;;;18.78;84.76
33075;BME280;19433;51.292;6.868;2023-09-08T01:43:37;100558.34;;;18.65;86.46
33075;BME280;19433;51.292;6.868;2023-09-08T01:46:03;100560.53;;;18.46;87.58
33075;BME280;19433;51.292;6.868;2023-09-08T01:48:28;100563.25;;;18.75;84.75
33075;BME280;19433;51.292;6.868;2023-09-08T01:50:53;100555.81;;;18.64;85.35
33075;BME280;19433;51.292;6.868;2023-09-08T01:53:18;100559.09;;;18.44;87.60
33075;BME280;19433;51.292;6.868;2023-09-08T01:55:44;100562.13;;;18.42;88.51
33075;BME280;19433;51.292;6.868;2023-09-08T01:58:10;100556.78;;;18.24;89.67
33075;BME280;19433;51.292;6.868;2023-09-08T02:00:35;100560.50;;;18.13;90.14
33075;BME280;19433;51.292;6.868;2023-09-08T02:03:01;100545.75;;;18.01;90.36
33075;BME280;19433;51.292;6.868;2023-09-08T02:05:26;100539.81;;;17.97;90.90
33075;BME280;19433;51.292;6.868;2023-09-08T02:07:52;100551.66;;;18.04;90.97
33075;BME280;19433;51.292;6.868;2023-09-08T02:10:18;100547.00;;;17.93;90.87
33075;BME280;19433;51.292;6.868;2023-09-08T02:12:43;100538.19;;;17.84;91.52
33075;BME280;19433;51.292;6.868;2023-09-08T02:15:09;100543.53;;;17.86;92.13
33075;BME280;19433;51.292;6.868;2023-09-08T02:17:36;100543.56;;;17.74;93.04
33075;BME280;19433;51.292;6.868;2023-09-08T02:20:01;100540.94;;;17.68;93.50
33075;BME280;19433;51.292;6.868;2023-09-08T02:22:26;100548.31;;;17.62;94.22
33075;BME280;19433;51.292;6.868;2023-09-08T02:24:52;100562.78;;;17.59;93.98
33075;BME280;19433;51.292;6.868;2023-09-08T02:27:18;100557.97;;;17.43;95.01
33075;BME280;19433;51.292;6.868;2023-09-08T02:29:44;100555.19;;;17.43;95.40
33075;BME280;19433;51.292;6.868;2023-09-08T02:32:09;100542.75;;;17.22;95.80
33075;BME280;19433;51.292;6.868;2023-09-08T02:34:36;100562.56;;;17.09;96.49
33075;BME280;19433;51.292;6.868;2023-09-08T02:37:04;100550.91;;;17.00;97.44
33075;BME280;19433;51.292;6.868;2023-09-08T02:39:29;100556.47;;;17.00;97.36
33075;BME280;19433;51.292;6.868;2023-09-08T02:41:55;100552.50;;;16.84;98.42
33075;BME280;19433;51.292;6.868;2023-09-08T02:44:20;100553.06;;;16.51;100.00
33075;BME280;19433;51.292;6.868;2023-09-08T02:46:47;100542.03;;;16.33;100.00
33075;BME280;19433;51.292;6.868;2023-09-08T02:49:12;100546.63;;;16.39;100.00
33075;BME280;19433;51.292;6.868;2023-09-08T02:51:38;100543.13;;;16.44;100.00
33075;BME280;19433;51.292;6.868;2023-09-08T02:54:03;100546.41;;;16.41;100.00
33075;BME280;19433;51.292;6.868;2023-09-08T02:56:28;100545.22;;;16.48;100.00
33075;BME280;19433;51.292;6.868;2023-09-08T02:58:53;100555.13;;;16.44;100.00
33075;BME280;19433;51.292;6.868;2023-09-08T03:01:19;100550.88;;;16.42;100.00
33075;BME280;19433;51.292;6.868;2023-09-08T03:03:46;100553.19;;;16.33;100.00
33075;BME280;19433;51.292;6.868;2023-09-08T03:06:12;100537.28;;;16.22;100.00
33075;BME280;19433;51.292;6.868;2023-09-08T03:08:38;100544.69;;;16.16;100.00
33075;BME280;19433;51.292;6.868;2023-09-08T03:11:04;100545.75;;;16.15;100.00
33075;BME280;19433;51.292;6.868;2023-09-08T03:13:30;100531.81;;;16.04;100.00
33075;BME280;19433;51.292;6.868;2023-09-08T03:15:56;100539.16;;;15.87;100.00
33075;BME280;19433;51.292;6.868;2023-09-08T03:18:22;100531.25;;;15.83;100.00
33075;BME280;19433;51.292;6.868;2023-09-08T03:20:49;100536.22;;;15.81;100.00
33075;BME280;19433;51.292;6.868;2023-09-08T03:23:14;100526.06;;;15.87;100.00
33075;BME280;19433;51.292;6.868;2023-09-08T03:25:40;100529.19;;;15.91;100.00
33075;BME280;19433;51.292;6.868;2023-09-08T03:28:05;100526.06;;;15.87;100.00
33075;BME280;19433;51.292;6.868;2023-09-08T03:30:30;100523.63;;;15.91;100.00
33075;BME280;19433;51.292;6.868;2023-09-08T03:32:55;100509.84;;;15.96;100.00
33075;BME280;19433;51.292;6.868;2023-09-08T03:35:21;100515.09;;;16.04;100.00
33075;BME280;19433;51.292;6.868;2023-09-08T03:37:46;100513.16;;;16.16;100.00
33075;BME280;19433;51.292;6.868;2023-09-08T03:40:11;100512.78;;;16.24;100.00
33075;BME280;19433;51.292;6.868;2023-09-08T03:42:37;100520.69;;;16.50;100.00
33075;BME280;19433;51.292;6.868;2023-09-08T03:45:02;100516.13;;;16.79;97.50
33075;BME280;19433;51.292;6.868;2023-09-08T03:47:27;100518.72;;;17.21;94.69
33075;BME280;19433;51.292;6.868;2023-09-08T03:49:53;100517.22;;;17.30;93.47
33075;BME280;19433;51.292;6.868;2023-09-08T03:52:18;100517.97;;;17.26;94.40
33075;BME280;19433;51.292;6.868;2023-09-08T03:54:43;100529.19;;;17.42;92.97
33075;BME280;19433;51.292;6.868;2023-09-08T03:57:09;100528.50;;;17.35;93.58
33075;BME280;19433;51.292;6.868;2023-09-08T03:59:34;100527.00;;;17.44;90.92
33075;BME280;19433;51.292;6.868;2023-09-08T04:02:00;100520.31;;;17.45;91.50
33075;BME280;19433;51.292;6.868;2023-09-08T04:04:26;100527.03;;;17.33;93.13
33075;BME280;19433;51.292;6.868;2023-09-08T04:06:51;100517.97;;;17.26;93.68
33075;BME280;19433;51.292;6.868;2023-09-08T04:09:17;100520.03;;;17.18;93.91
33075;BME280;19433;51.292;6.868;2023-09-08T04:11:42;100515.63;;;16.94;94.99
33075;BME280;19433;51.292;6.868;2023-09-08T04:14:07;100524.47;;;16.91;95.42
33075;BME280;19433;51.292;6.868;2023-09-08T04:16:32;100524.22;;;17.04;93.77
33075;BME280;19433;51.292;6.868;2023-09-08T04:18:58;100524.00;;;16.94;94.60
33075;BME280;19433;51.292;6.868;2023-09-08T04:21:23;100521.44;;;16.93;95.11
33075;BME280;19433;51.292;6.868;2023-09-08T04:23:48;100519.50;;;16.81;95.87
33075;BME280;19433;51.292;6.868;2023-09-08T04:26:14;100523.88;;;16.77;95.74
33075;BME280;19433;51.292;6.868;2023-09-08T04:28:39;100520.00;;;16.78;95.41
33075;BME280;19433;51.292;6.868;2023-09-08T04:31:04;100521.81;;;16.73;95.72
33075;BME280;19433;51.292;6.868;2023-09-08T04:33:30;100525.31;;;16.68;96.23
33075;BME280;19433;51.292;6.868;2023-09-08T04:35:55;100521.19;;;16.59;96.14
33075;BME280;19433;51.292;6.868;2023-09-08T04:38:20;100526.41;;;16.67;95.96
33075;BME280;19433;51.292;6.868;2023-09-08T04:40:47;100531.25;;;16.60;96.07
33075;BME280;19433;51.292;6.868;2023-09-08T04:43:12;100524.59;;;16.73;93.58
33075;BME280;19433;51.292;6.868;2023-09-08T04:45:37;100521.94;;;16.78;92.51
33075;BME280;19433;51.292;6.868;2023-09-08T04:48:04;100513.94;;;16.70;94.87
33075;BME280;19433;51.292;6.868;2023-09-08T04:50:29;100523.38;;;16.69;94.20
33075;BME280;19433;51.292;6.868;2023-09-08T04:52:55;100524.47;;;16.68;93.89
33075;BME280;19433;51.292;6.868;2023-09-08T04:55:20;100522.88;;;16.60;94.52
33075;BME280;19433;51.292;6.868;2023-09-08T04:57:45;100517.56;;;16.70;93.89
33075;BME280;19433;51.292;6.868;2023-09-08T05:00:11;100532.03;;;16.79;94.26
33075;BME280;19433;51.292;6.868;2023-09-08T05:02:37;100531.28;;;16.72;94.88
33075;BME280;19433;51.292;6.868;2023-09-08T05:05:02;100529.94;;;16.74;94.56
33075;BME280;19433;51.292;6.868;2023-09-08T05:07:27;100530.19;;;16.73;94.93
33075;BME280;19433;51.292;6.868;2023-09-08T05:09:53;100521.19;;;16.59;95.16
33075;BME280;19433;51.292;6.868;2023-09-08T05:12:18;100526.53;;;16.61;95.62
33075;BME280;19433;51.292;6.868;2023-09-08T05:14:43;100526.56;;;16.72;94.92
33075;BME280;19433;51.292;6.868;2023-09-08T05:17:08;100528.72;;;16.82;94.15
33075;BME280;19433;51.292;6.868;2023-09-08T05:19:34;100533.09;;;16.90;94.25
33075;BME280;19433;51.292;6.868;2023-09-08T05:21:59;100529.78;;;17.04;92.22
33075;BME280;19433;51.292;6.868;2023-09-08T05:24:24;100525.66;;;17.07;93.20
33075;BME280;19433;51.292;6.868;2023-09-08T05:26:51;100530.00;;;17.14;92.54
33075;BME280;19433;51.292;6.868;2023-09-08T05:29:17;100522.63;;;17.08;93.08
33075;BME280;19433;51.292;6.868;2023-09-08T05:31:42;100531.94;;;17.26;91.49
33075;BME280;19433;51.292;6.868;2023-09-08T05:34:07;100533.66;;;17.55;89.28
33075;BME280;19433;51.292;6.868;2023-09-08T05:36:33;100532.94;;;17.48;90.47
33075;BME280;19433;51.292;6.868;2023-09-08T05:39:01;100539.94;;;17.62;89.53
33075;BME280;19433;51.292;6.868;2023-09-08T05:41:27;100541.53;;;17.58;90.95
33075;BME280;19433;51.292;6.868;2023-09-08T05:43:53;100538.41;;;17.54;91.55
33075;BME280;19433;51.292;6.868;2023-09-08T05:46:18;100540.06;;;17.67;90.27
33075;BME280;19433;51.292;6.868;2023-09-08T05:48:46;100535.69;;;17.71;90.40
33075;BME280;19433;51.292;6.868;2023-09-08T05:51:13;100536.38;;;17.78;90.33
33075;BME280;19433;51.292;6.868;2023-09-08T05:53:38;100550.03;;;17.91;89.16
33075;BME280;19433;51.292;6.868;2023-09-08T05:56:05;100538.59;;;17.93;88.32
33075;BME280;19433;51.292;6.868;2023-09-08T05:58:30;100559.81;;;18.06;88.78
33075;BME280;19433;51.292;6.868;2023-09-08T06:00:56;100559.91;;;18.11;88.39
33075;BME280;19433;51.292;6.868;2023-09-08T06:03:21;100557.59;;;18.08;90.16
33075;BME280;19433;51.292;6.868;2023-09-08T06:05:46;100554.84;;;18.24;87.43
33075;BME280;19433;51.292;6.868;2023-09-08T06:08:11;100549.69;;;18.33;87.29
33075;BME280;19433;51.292;6.868;2023-09-08T06:10:38;100557.47;;;18.65;84.64
33075;BME280;19433;51.292;6.868;2023-09-08T06:13:03;100559.09;;;18.94;82.70
33075;BME280;19433;51.292;6.868;2023-09-08T06:15:29;100555.03;;;19.23;80.16
33075;BME280;19433;51.292;6.868;2023-09-08T06:17:54;100554.63;;;19.58;78.11
33075;BME280;19433;51.292;6.868;2023-09-08T06:20:19;100559.81;;;19.66;78.54
33075;BME280;19433;51.292;6.868;2023-09-08T06:22:45;100560.94;;;19.92;76.19
33075;BME280;19433;51.292;6.868;2023-09-08T06:25:10;100554.88;;;20.06;77.20
33075;BME280;19433;51.292;6.868;2023-09-08T06:27:36;100566.75;;;20.13;76.94
33075;BME280;19433;51.292;6.868;2023-09-08T06:30:01;100572.50;;;20.28;74.90
33075;BME280;19433;51.292;6.868;2023-09-08T06:32:27;100571.00;;;20.47;74.28
33075;BME280;19433;51.292;6.868;2023-09-08T06:34:52;100569.28;;;20.73;72.38
33075;BME280;19433;51.292;6.868;2023-09-08T06:37:17;100566.78;;;20.77;72.62
33075;BME280;19433;51.292;6.868;2023-09-08T06:39:43;100575.13;;;21.08;72.15
33075;BME280;19433;51.292;6.868;2023-09-08T06:42:08;100572.16;;;21.25;72.92
33075;BME280;19433;51.292;6.868;2023-09-08T06:44:33;100581.38;;;21.73;72.53
33075;BME280;19433;51.292;6.868;2023-09-08T06:46:58;100594.16;;;23.53;64.87
33075;BME280;19433;51.292;6.868;2023-09-08T06:49:24;100593.31;;;25.77;58.37
33075;BME280;19433;51.292;6.868;2023-09-08T06:51:49;100601.59;;;27.64;50.33
33075;BME280;19433;51.292;6.868;2023-09-08T06:54:14;100612.06;;;29.13;44.92
33075;BME280;19433;51.292;6.868;2023-09-08T06:56:40;100621.84;;;30.57;41.63
33075;BME280;19433;51.292;6.868;2023-09-08T06:59:05;100615.25;;;31.34;39.47
33075;BME280;19433;51.292;6.868;2023-09-08T07:01:30;100629.19;;;32.49;37.93
33075;BME280;19433;51.292;6.868;2023-09-08T07:03:56;100632.91;;;33.58;36.17
33075;BME280;19433;51.292;6.868;2023-09-08T07:06:21;100634.28;;;33.84;34.22
33075;BME280;19433;51.292;6.868;2023-09-08T07:08:49;100644.84;;;34.69;32.27
33075;BME280;19433;51.292;6.868;2023-09-08T07:11:17;100640.28;;;35.20;31.71
33075;BME280;19433;51.292;6.868;2023-09-08T07:13:44;100636.94;;;35.18;31.27
33075;BME280;19433;51.292;6.868;2023-09-08T07:16:09;100642.06;;;36.16;30.49
33075;BME280;19433;51.292;6.868;2023-09-08T07:18:35;100640.88;;;36.17;29.09
33075;BME280;19433;51.292;6.868;2023-09-08T07:21:02;100644.59;;;36.17;29.52
33075;BME280;19433;51.292;6.868;2023-09-08T07:23:28;100652.81;;;36.85;29.76
33075;BME280;19433;51.292;6.868;2023-09-08T07:25:53;100644.28;;;37.27;27.77
33075;BME280;19433;51.292;6.868;2023-09-08T07:28:19;100643.13;;;38.46;27.86
33075;BME280;19433;51.292;6.868;2023-09-08T07:30:44;100650.25;;;38.82;26.29
33075;BME280;19433;51.292;6.868;2023-09-08T07:33:09;100659.03;;;38.59;25.71
33075;BME280;19433;51.292;6.868;2023-09-08T07:35:39;100657.91;;;38.41;25.87
33075;BME280;19433;51.292;6.868;2023-09-08T07:38:05;100656.78;;;38.76;26.22
33075;BME280;19433;51.292;6.868;2023-09-08T07:40:32;100647.38;;;38.82;25.47
33075;BME280;19433;51.292;6.868;2023-09-08T07:42:57;100662.31;;;39.48;24.67
33075;BME280;19433;51.292;6.868;2023-09-08T07:45:23;100673.16;;;40.42;23.95
33075;BME280;19433;51.292;6.868;2023-09-08T07:47:48;100667.56;;;40.71;23.51
33075;BME280;19433;51.292;6.868;2023-09-08T07:50:21;100670.28;;;40.42;23.51
33075;BME280;19433;51.292;6.868;2023-09-08T07:52:48;100673.25;;;41.26;22.88
33075;BME280;19433;51.292;6.868;2023-09-08T07:55:14;100662.72;;;42.08;22.28
33075;BME280;19433;51.292;6.868;2023-09-08T07:57:42;100682.94;;;41.62;21.95
33075;BME280;19433;51.292;6.868;2023-09-08T08:00:08;100687.66;;;41.11;22.22
33075;BME280;19433;51.292;6.868;2023-09-08T08:02:36;100674.09;;;40.57;22.57
33075;BME280;19433;51.292;6.868;2023-09-08T08:05:02;100669.84;;;40.40;23.31
33075;BME280;19433;51.292;6.868;2023-09-08T08:07:27;100669.06;;;39.62;24.28
33075;BME280;19433;51.292;6.868;2023-09-08T08:09:52;100661.72;;;39.68;24.45
33075;BME280;19433;51.292;6.868;2023-09-08T08:12:19;100655.38;;;40.44;23.70
33075;BME280;19433;51.292;6.868;2023-09-08T08:14:44;100658.72;;;41.15;22.68
33075;BME280;19433;51.292;6.868;2023-09-08T08:17:09;100659.44;;;39.88;23.85
33075;BME280;19433;51.292;6.868;2023-09-08T08:19:36;100660.44;;;40.06;23.76
33075;BME280;19433;51.292;6.868;2023-09-08T08:22:01;100661.53;;;40.94;24.09
33075;BME280;19433;51.292;6.868;2023-09-08T08:24:27;100664.78;;;42.07;22.44
33075;BME280;19433;51.292;6.868;2023-09-08T08:26:52;100663.50;;;42.87;21.44
33075;BME280;19433;51.292;6.868;2023-09-08T08:29:17;100656.41;;;41.60;22.20
33075;BME280;19433;51.292;6.868;2023-09-08T08:31:43;100660.03;;;41.32;23.04
33075;BME280;19433;51.292;6.868;2023-09-08T08:34:08;100661.97;;;41.03;23.24
33075;BME280;19433;51.292;6.868;2023-09-08T08:36:34;100661.28;;;41.41;23.13
33075;BME280;19433;51.292;6.868;2023-09-08T08:38:59;100661.84;;;42.64;21.31
33075;BME280;19433;51.292;6.868;2023-09-08T08:41:25;100669.22;;;43.92;20.82
33075;BME280;19433;51.292;6.868;2023-09-08T08:43:51;100678.91;;;45.15;19.57
33075;BME280;19433;51.292;6.868;2023-09-08T08:46:17;100667.38;;;45.66;19.16
33075;BME280;19433;51.292;6.868;2023-09-08T08:48:44;100670.16;;;45.46;18.99
33075;BME280;19433;51.292;6.868;2023-09-08T08:51:11;100668.53;;;46.26;19.30
33075;BME280;19433;51.292;6.868;2023-09-08T08:53:37;100668.63;;;46.18;18.89
33075;BME280;19433;51.292;6.868;2023-09-08T08:56:04;100667.44;;;45.32;18.42
33075;BME280;19433;51.292;6.868;2023-09-08T08:58:33;100659.06;;;43.52;20.07
33075;BME280;19433;51.292;6.868;2023-09-08T09:00:59;100641.53;;;41.93;21.65
33075;BME280;19433;51.292;6.868;2023-09-08T09:03:26;100657.31;;;42.28;21.18
33075;BME280;19433;51.292;6.868;2023-09-08T09:05:52;100642.81;;;42.06;21.38
33075;BME280;19433;51.292;6.868;2023-09-08T09:08:18;100646.38;;;41.43;21.72
33075;BME280;19433;51.292;6.868;2023-09-08T09:10:44;100653.97;;;42.65;22.09
33075;BME280;19433;51.292;6.868;2023-09-08T09:13:09;100654.72;;;42.94;20.90
33075;BME280;19433;51.292;6.868;2023-09-08T09:15:35;100654.38;;;42.63;20.96
33075;BME280;19433;51.292;6.868;2023-09-08T09:18:07;100643.22;;;42.40;21.20
33075;BME280;19433;51.292;6.868;2023-09-08T09:20:33;100646.53;;;41.86;22.31
33075;BME280;19433;51.292;6.868;2023-09-08T09:22:59;100648.94;;;42.87;21.08
33075;BME280;19433;51.292;6.868;2023-09-08T09:25:27;100654.50;;;44.61;19.89
33075;BME280;19433;51.292;6.868;2023-09-08T09:27:53;100668.94;;;45.43;18.58
33075;BME280;19433;51.292;6.868;2023-09-08T09:30:19;100672.66;;;45.10;18.58
33075;BME280;19433;51.292;6.868;2023-09-08T09:32:44;100671.75;;;45.50;18.22
33075;BME280;19433;51.292;6.868;2023-09-08T09:35:10;100668.13;;;47.33;17.13
33075;BME280;19433;51.292;6.868;2023-09-08T09:37:35;100668.66;;;48.65;16.66
33075;BME280;19433;51.292;6.868;2023-09-08T09:40:01;100663.50;;;46.92;17.05
33075;BME280;19433;51.292;6.868;2023-09-08T09:42:27;100660.59;;;45.42;17.84
33075;BME280;19433;51.292;6.868;2023-09-08T09:44:53;100661.28;;;45.83;17.92
33075;BME280;19433;51.292;6.868;2023-09-08T09:47:19;100654.00;;;45.04;18.53
33075;BME280;19433;51.292;6.868;2023-09-08T09:49:45;100643.06;;;45.72;18.38
33075;BME280;19433;51.292;6.868;2023-09-08T09:52:12;100646.84;;;45.08;18.66
33075;BME280;19433;51.292;6.868;2023-09-08T09:54:43;100644.13;;;45.59;18.60
33075;BME280;19433;51.292;6.868;2023-09-08T09:57:12;100649.38;;;45.98;17.73
33075;BME280;19433;51.292;6.868;2023-09-08T09:59:40;100642.19;;;44.80;18.69
33075;BME280;19433;51.292;6.868;2023-09-08T10:02:16;100649.03;;;45.01;18.34
33075;BME280;19433;51.292;6.868;2023-09-08T10:04:47;100650.41;;;45.57;18.63
33075;BME280;19433;51.292;6.868;2023-09-08T10:07:14;100655.19;;;45.71;18.48
33075;BME280;19433;51.292;6.868;2023-09-08T10:09:40;100657.59;;;46.53;17.47
33075;BME280;19433;51.292;6.868;2023-09-08T10:12:05;100656.25;;;47.01;17.29
33075;BME280;19433;51.292;6.868;2023-09-08T10:14:35;100658.03;;;46.51;17.54
33075;BME280;19433;51.292;6.868;2023-09-08T10:17:02;100654.38;;;46.71;17.43
33075;BME280;19433;51.292;6.868;2023-09-08T10:19:28;100657.13;;;45.81;17.88
33075;BME280;19433;51.292;6.868;2023-09-08T10:22:00;100655.34;;;46.84;17.61
33075;BME280;19433;51.292;6.868;2023-09-08T10:24:32;100662.25;;;48.05;16.98
33075;BME280;19433;51.292;6.868;2023-09-08T10:27:09;100670.47;;;49.20;15.49
33075;BME280;19433;51.292;6.868;2023-09-08T10:29:35;100655.66;;;48.66;16.54
33075;BME280;19433;51.292;6.868;2023-09-08T10:32:00;100657.41;;;48.63;16.09
33075;BME280;19433;51.292;6.868;2023-09-08T10:34:27;100653.91;;;48.69;16.13
33075;BME280;19433;51.292;6.868;2023-09-08T10:36:54;100652.94;;;48.43;16.29
33075;BME280;19433;51.292;6.868;2023-09-08T10:39:30;100639.00;;;47.46;17.11
33075;BME280;19433;51.292;6.868;2023-09-08T10:42:19;100634.38;;;47.65;16.73
33075;BME280;19433;51.292;6.868;2023-09-08T10:47:23;100650.66;;;49.08;16.32
33075;BME280;19433;51.292;6.868;2023-09-08T10:49:50;100660.41;;;49.34;17.08
33075;BME280;19433;51.292;6.868;2023-09-08T10:52:21;100658.81;;;49.84;15.27
33075;BME280;19433;51.292;6.868;2023-09-08T10:54:51;100649.09;;;48.13;15.63
33075;BME280;19433;51.292;6.868;2023-09-08T10:57:18;100646.31;;;47.54;16.52
33075;BME280;19433;51.292;6.868;2023-09-08T11:02:36;100647.00;;;47.62;17.12
33075;BME280;19433;51.292;6.868;2023-09-08T11:05:08;100648.06;;;48.04;17.99
33075;BME280;19433;51.292;6.868;2023-09-08T11:07:38;100653.38;;;47.37;16.62
33075;BME280;19433;51.292;6.868;2023-09-08T11:10:07;100646.81;;;48.53;16.37
33075;BME280;19433;51.292;6.868;2023-09-08T11:12:33;100658.06;;;49.42;15.71
33075;BME280;19433;51.292;6.868;2023-09-08T11:14:59;100659.19;;;49.73;15.27
33075;BME280;19433;51.292;6.868;2023-09-08T11:17:31;100667.06;;;49.76;14.78
33075;BME280;19433;51.292;6.868;2023-09-08T11:19:57;100669.16;;;50.14;14.86
33075;BME280;19433;51.292;6.868;2023-09-08T11:22:25;100660.22;;;49.67;15.39
33075;BME280;19433;51.292;6.868;2023-09-08T11:24:52;100657.66;;;50.07;14.62
33075;BME280;19433;51.292;6.868;2023-09-08T11:27:19;100648.16;;;49.36;15.25
33075;BME280;19433;51.292;6.868;2023-09-08T11:29:45;100646.44;;;51.09;14.39
33075;BME280;19433;51.292;6.868;2023-09-08T11:32:11;100658.50;;;50.67;14.38
33075;BME280;19433;51.292;6.868;2023-09-08T11:34:37;100655.16;;;49.54;15.42
33075;BME280;19433;51.292;6.868;2023-09-08T11:37:10;100648.25;;;49.61;15.18
33075;BME280;19433;51.292;6.868;2023-09-08T11:39:37;100649.88;;;49.49;16.14
33075;BME280;19433;51.292;6.868;2023-09-08T11:42:03;100639.81;;;49.21;15.39
33075;BME280;19433;51.292;6.868;2023-09-08T11:44:29;100657.41;;;50.39;14.85
33075;BME280;19433;51.292;6.868;2023-09-08T11:46:54;100646.88;;;50.51;14.94
33075;BME280;19433;51.292;6.868;2023-09-08T11:49:20;100640.41;;;50.90;14.45
33075;BME280;19433;51.292;6.868;2023-09-08T11:51:49;100635.78;;;50.08;15.37
33075;BME280;19433;51.292;6.868;2023-09-08T11:54:14;100640.91;;;50.76;14.27
33075;BME280;19433;51.292;6.868;2023-09-08T11:56:41;100644.06;;;50.47;16.91
33075;BME280;19433;51.292;6.868;2023-09-08T11:59:07;100642.34;;;50.37;15.20
33075;BME280;19433;51.292;6.868;2023-09-08T12:01:32;100643.88;;;49.53;16.54
33075;BME280;19433;51.292;6.868;2023-09-08T12:03:58;100639.44;;;49.74;16.51
33075;BME280;19433;51.292;6.868;2023-09-08T12:06:25;100644.44;;;49.35;16.14
33075;BME280;19433;51.292;6.868;2023-09-08T12:08:50;100634.84;;;49.73;15.56
33075;BME280;19433;51.292;6.868;2023-09-08T12:11:16;100636.88;;;48.92;15.92
33075;BME280;19433;51.292;6.868;2023-09-08T12:13:41;100627.75;;;49.45;15.64
33075;BME280;19433;51.292;6.868;2023-09-08T12:16:25;100616.75;;;49.87;16.34
33075;BME280;19433;51.292;6.868;2023-09-08T12:18:50;100616.06;;;49.16;16.63
33075;BME280;19433;51.292;6.868;2023-09-08T12:21:16;100618.31;;;48.54;16.41
33075;BME280;19433;51.292;6.868;2023-09-08T12:23:48;100611.66;;;48.66;16.85
33075;BME280;19433;51.292;6.868;2023-09-08T12:26:14;100607.72;;;48.11;18.01
33075;BME280;19433;51.292;6.868;2023-09-08T12:28:41;100608.97;;;48.43;16.51
33075;BME280;19433;51.292;6.868;2023-09-08T12:31:07;100612.13;;;48.65;16.48
33075;BME280;19433;51.292;6.868;2023-09-08T12:33:33;100609.44;;;48.25;16.65
33075;BME280;19433;51.292;6.868;2023-09-08T12:35:58;100603.03;;;47.81;16.82
33075;BME280;19433;51.292;6.868;2023-09-08T12:38:30;100601.09;;;48.23;16.63
33075;BME280;19433;51.292;6.868;2023-09-08T12:40:56;100600.81;;;47.33;17.69
33075;BME280;19433;51.292;6.868;2023-09-08T12:43:21;100585.03;;;46.48;17.92
33075;BME280;19433;51.292;6.868;2023-09-08T12:45:46;100595.44;;;46.29;18.11
33075;BME280;19433;51.292;6.868;2023-09-08T12:48:11;100595.06;;;47.10;17.87
33075;BME280;19433;51.292;6.868;2023-09-08T12:50:37;100591.22;;;47.13;16.69
33075;BME280;19433;51.292;6.868;2023-09-08T12:53:02;100590.00;;;46.04;18.47